Terminal Aerodrome Forecast
Issued by NWS Quad Cities IA IL

Home | Current Version | Previous Version | Text Only | Print | Product List | Glossary On
Versions: 1 2 3 4 5 6 7 8 9 10 11 12 13 14 15 16 17 18 19 20
000
FTUS43 KDVN 270520
TAFMLI
TAF
KMLI 270520Z 2706/2806 27005KT P6SM OVC200
      TEMPO 2707/2711 5SM TSRA BKN040CB
     FM271100 15005KT 5SM BR VCTS BKN060CB
     FM271600 19010KT P6SM BKN050 PROB30 2723/2803 4SM TSRA
      OVC040CB=

USA.gov is the U.S. government's official web portal to all federal, state and local government web resources and services.